Time;durP1;ratioP1;P1;durP2;ratioP2;P2;SDS_P1;SDS_P2;PMS_P1;PMS_P2;Temp;Humidity;BMP_temperature;BMP_pressure;BME280_temperature;BME280_humidity;BME280_pressure;Samples;Min_cycle;Max_cycle;Signal;HPM_P1;HPM_P2
2023/06/14 16:59:07;;;;;;;;;;;;;;;;;;1462234;33;21643;-58
2023/06/14 17:00:01;;;;;;;19.15;13.48;;;;;;;;;;1678937;29;21608;-60
2023/06/14 17:00:58;;;;;;;33.05;17.42;;;;;;;;;;1678663;29;21691;-46
2023/06/14 17:01:52;;;;;;;23.35;17.75;;;;;;;;;;1679443;29;21514;-46
2023/06/14 17:02:55;;;;;;;18.73;16.45;;;;;;;;;;1680820;29;21633;-47
2023/06/14 17:03:52;;;;;;;23.85;16.70;;;;;;;;;;1666985;29;21532;-52
2023/06/14 17:04:49;;;;;;;27.60;18.10;;;;;;;;;;1665826;29;21539;-46
2023/06/14 17:05:55;;;;;;;20.15;17.77;;;;;;;;;;1658812;29;21882;-46
2023/06/14 17:06:50;;;;;;;24.10;18.17;;;;;;;;;;1673949;29;21621;-46
2023/06/14 17:07:44;;;;;;;21.73;16.88;;;;;;;;;;1679370;29;21560;-44
2023/06/14 17:08:39;;;;;;;22.73;18.05;;;;;;;;;;1680996;29;21658;-45
2023/06/14 17:09:33;;;;;;;21.38;17.00;;;;;;;;;;1680675;29;21568;-48
2023/06/14 17:10:28;;;;;;;19.17;16.73;;;;;;;;;;1678396;29;22361;-45
2023/06/14 17:11:22;;;;;;;21.23;17.70;;;;;;;;;;1677273;29;21730;-44
2023/06/14 17:12:17;;;;;;;22.33;18.08;;;;;;;;;;1679936;29;21764;-47
2023/06/14 17:13:11;;;;;;;28.15;17.45;;;;;;;;;;1681458;29;21841;-45
2023/06/14 17:14:09;;;;;;;21.33;17.33;;;;;;;;;;1679907;29;21700;-45
2023/06/14 17:15:03;;;;;;;20.90;15.88;;;;;;;;;;1681192;29;22070;-45
2023/06/14 17:15:59;;;;;;;18.10;15.70;;;;;;;;;;1680226;29;21785;-45
2023/06/14 17:16:53;;;;;;;16.55;15.00;;;;;;;;;;1680561;29;22024;-46
2023/06/14 17:17:48;;;;;;;21.75;15.40;;;;;;;;;;1680183;29;21691;-45
2023/06/14 17:18:42;;;;;;;16.83;14.63;;;;;;;;;;1679926;29;21716;-46
2023/06/14 17:19:37;;;;;;;19.10;15.05;;;;;;;;;;1679832;29;21682;-45
2023/06/14 17:20:30;;;;;;;29.27;15.85;;;;;;;;;;1680453;29;21539;-47
2023/06/14 17:21:25;;;;;;;20.02;14.82;;;;;;;;;;1673592;29;22083;-48
2023/06/14 17:22:19;;;;;;;18.42;15.50;;;;;;;;;;1678909;29;21760;-47
2023/06/14 17:23:15;;;;;;;31.73;17.73;;;;;;;;;;1679591;29;21935;-50
2023/06/14 17:24:09;;;;;;;26.08;16.35;;;;;;;;;;1679946;29;21713;-46
2023/06/14 17:25:05;;;;;;;21.02;17.75;;;;;;;;;;1680485;29;22043;-48
2023/06/14 17:25:58;;;;;;;23.67;18.58;;;;;;;;;;1679744;29;22450;-47
2023/06/14 17:26:53;;;;;;;28.42;18.95;;;;;;;;;;1679176;29;21528;-45
2023/06/14 17:27:47;;;;;;;31.48;17.40;;;;;;;;;;1679632;29;22410;-46
2023/06/14 17:28:42;;;;;;;27.92;17.05;;;;;;;;;;1681001;29;21648;-46
2023/06/14 17:29:37;;;;;;;26.30;16.48;;;;;;;;;;1679633;29;21791;-47
2023/06/14 17:30:32;;;;;;;25.42;16.33;;;;;;;;;;1680239;29;21542;-46
2023/06/14 17:31:26;;;;;;;25.83;15.90;;;;;;;;;;1678925;29;21656;-45
2023/06/14 17:32:21;;;;;;;22.65;14.75;;;;;;;;;;1680041;29;22218;-50
2023/06/14 17:33:16;;;;;;;16.10;14.00;;;;;;;;;;1678106;29;21617;-46
2023/06/14 17:34:11;;;;;;;20.15;12.18;;;;;;;;;;1680049;29;22031;-49
2023/06/14 17:35:06;;;;;;;24.60;11.90;;;;;;;;;;1679752;29;22413;-46
2023/06/14 17:36:01;;;;;;;13.00;11.75;;;;;;;;;;1680936;29;21644;-45
2023/06/14 17:36:54;;;;;;;15.63;12.23;;;;;;;;;;1680721;29;21566;-47
2023/06/14 17:37:49;;;;;;;13.05;11.80;;;;;;;;;;1679917;29;21662;-43
2023/06/14 17:38:43;;;;;;;15.20;10.60;;;;;;;;;;1678685;29;22110;-46
2023/06/14 17:39:41;;;;;;;10.23;9.27;;;;;;;;;;1680197;29;21504;-44
2023/06/14 17:40:36;;;;;;;15.85;9.27;;;;;;;;;;1679122;29;21608;-45
2023/06/14 17:41:30;;;;;;;10.35;9.38;;;;;;;;;;1680375;29;22118;-46
2023/06/14 17:42:25;;;;;;;13.20;9.63;;;;;;;;;;1678785;29;21693;-46
